Oakdale, Kentucky
Current Conditions -  °F | °C
As of 4:53 AM on Friday 24 Oct 2014 (Local Time) from KPAH Reporting Station
Clear Clear  
Wind Chill: 40°   Ceiling: Unl
Heat Index: 40°   Visibility: 7mi
Dew Point: 38°   Wind: 0mph
Humidity: 93%   Direction: NA
Pressure: 30.12"   Gusts: NA
Location:  37.0331°N, 88.716°W
Report Text: KPAH 240953Z AUTO 00000KT 7SM CLR 04/03 A3012 RMK AO2 SLP200 T00440033
Loading
Personal Weather Stations






























Interactive Weather Map
Tropical Storm Tracking
New forecast layout! Learn more

10-Day Weather Forecast

Advertisements
Track Severe Weather on mobile